sensor_id;sensor_type;location;lat;lon;timestamp;pressure;altitude;pressure_sealevel;temperature;humidity
45078;BME280;60508;42.622;25.416;2023-12-20T00:01:45;97124.88;;;5.38;70.52
45078;BME280;60508;42.622;25.416;2023-12-20T00:04:11;97123.66;;;5.41;70.25
45078;BME280;60508;42.622;25.416;2023-12-20T00:06:38;97128.38;;;5.52;69.42
45078;BME280;60508;42.622;25.416;2023-12-20T00:09:05;97123.25;;;5.44;69.80
45078;BME280;60508;42.622;25.416;2023-12-20T00:11:32;97119.97;;;5.42;69.64
45078;BME280;60508;42.622;25.416;2023-12-20T00:13:59;97126.94;;;5.43;69.48
45078;BME280;60508;42.622;25.416;2023-12-20T00:16:25;97127.38;;;5.46;69.64
45078;BME280;60508;42.622;25.416;2023-12-20T00:18:52;97117.91;;;5.51;69.25
45078;BME280;60508;42.622;25.416;2023-12-20T00:21:18;97122.84;;;5.54;69.23
45078;BME280;60508;42.622;25.416;2023-12-20T00:23:45;97127.94;;;5.35;68.22
45078;BME280;60508;42.622;25.416;2023-12-20T00:26:12;97116.41;;;5.08;70.33
45078;BME280;60508;42.622;25.416;2023-12-20T00:28:39;97113.75;;;5.15;70.66
45078;BME280;60508;42.622;25.416;2023-12-20T00:31:06;97117.41;;;5.07;70.74
45078;BME280;60508;42.622;25.416;2023-12-20T00:33:53;97112.34;;;5.25;70.81
45078;BME280;60508;42.622;25.416;2023-12-20T00:36:20;97118.91;;;5.23;70.49
45078;BME280;60508;42.622;25.416;2023-12-20T00:38:47;97117.06;;;5.23;70.42
45078;BME280;60508;42.622;25.416;2023-12-20T00:41:14;97113.63;;;5.43;69.88
45078;BME280;60508;42.622;25.416;2023-12-20T00:43:40;97111.97;;;5.42;68.83
45078;BME280;60508;42.622;25.416;2023-12-20T00:46:07;97112.56;;;5.24;69.51
45078;BME280;60508;42.622;25.416;2023-12-20T00:48:54;97098.16;;;5.05;70.45
45078;BME280;60508;42.622;25.416;2023-12-20T00:51:21;97100.81;;;5.05;70.64
45078;BME280;60508;42.622;25.416;2023-12-20T00:54:09;97091.56;;;4.94;70.46
45078;BME280;60508;42.622;25.416;2023-12-20T00:56:35;97098.69;;;4.38;72.89
45078;BME280;60508;42.622;25.416;2023-12-20T00:59:23;97097.50;;;4.41;72.88
45078;BME280;60508;42.622;25.416;2023-12-20T01:01:49;97103.06;;;4.18;74.28
45078;BME280;60508;42.622;25.416;2023-12-20T01:04:16;97098.41;;;4.27;74.56
45078;BME280;60508;42.622;25.416;2023-12-20T01:06:43;97090.59;;;4.18;75.45
45078;BME280;60508;42.622;25.416;2023-12-20T01:09:09;97076.50;;;4.25;75.87
45078;BME280;60508;42.622;25.416;2023-12-20T01:11:36;97082.13;;;4.43;75.58
45078;BME280;60508;42.622;25.416;2023-12-20T01:14:23;97073.81;;;4.60;74.22
45078;BME280;60508;42.622;25.416;2023-12-20T01:16:50;97073.66;;;4.68;74.21
45078;BME280;60508;42.622;25.416;2023-12-20T01:19:36;97058.13;;;4.78;74.40
45078;BME280;60508;42.622;25.416;2023-12-20T01:22:03;97055.69;;;4.83;73.62
45078;BME280;60508;42.622;25.416;2023-12-20T01:24:30;97043.00;;;4.85;73.25
45078;BME280;60508;42.622;25.416;2023-12-20T01:26:57;97052.66;;;4.93;73.44
45078;BME280;60508;42.622;25.416;2023-12-20T01:29:23;97054.06;;;4.96;72.45
45078;BME280;60508;42.622;25.416;2023-12-20T01:31:50;97047.03;;;4.68;72.93
45078;BME280;60508;42.622;25.416;2023-12-20T01:34:37;97047.56;;;4.43;72.25
45078;BME280;60508;42.622;25.416;2023-12-20T01:37:04;97039.72;;;4.28;73.73
45078;BME280;60508;42.622;25.416;2023-12-20T01:39:31;97039.47;;;4.23;73.96
45078;BME280;60508;42.622;25.416;2023-12-20T01:42:18;97033.53;;;3.86;75.69
45078;BME280;60508;42.622;25.416;2023-12-20T01:44:45;97029.50;;;3.97;75.70
45078;BME280;60508;42.622;25.416;2023-12-20T01:47:12;97030.94;;;3.71;75.56
45078;BME280;60508;42.622;25.416;2023-12-20T01:49:39;97022.44;;;3.82;75.95
45078;BME280;60508;42.622;25.416;2023-12-20T01:52:26;97011.72;;;3.69;76.32
45078;BME280;60508;42.622;25.416;2023-12-20T01:54:55;97011.06;;;3.60;76.17
45078;BME280;60508;42.622;25.416;2023-12-20T01:57:49;97000.13;;;3.77;76.84
45078;BME280;60508;42.622;25.416;2023-12-20T02:00:16;96997.03;;;4.08;76.18
45078;BME280;60508;42.622;25.416;2023-12-20T02:02:44;96998.31;;;4.19;76.13
45078;BME280;60508;42.622;25.416;2023-12-20T02:05:32;96998.13;;;4.20;75.21
45078;BME280;60508;42.622;25.416;2023-12-20T02:07:59;96990.31;;;4.12;74.25
45078;BME280;60508;42.622;25.416;2023-12-20T02:10:26;96993.16;;;3.76;75.39
45078;BME280;60508;42.622;25.416;2023-12-20T02:12:54;96982.88;;;3.66;75.65
45078;BME280;60508;42.622;25.416;2023-12-20T02:15:20;96976.34;;;3.62;76.74
45078;BME280;60508;42.622;25.416;2023-12-20T02:17:47;96980.41;;;3.64;77.44
45078;BME280;60508;42.622;25.416;2023-12-20T02:20:35;96975.69;;;3.60;77.00
45078;BME280;60508;42.622;25.416;2023-12-20T02:23:22;96972.66;;;3.98;76.65
45078;BME280;60508;42.622;25.416;2023-12-20T02:25:49;96960.25;;;4.12;76.49
45078;BME280;60508;42.622;25.416;2023-12-20T02:28:35;96957.88;;;4.30;75.32
45078;BME280;60508;42.622;25.416;2023-12-20T02:31:02;96952.31;;;4.25;75.64
45078;BME280;60508;42.622;25.416;2023-12-20T02:33:29;96950.13;;;4.49;75.61
45078;BME280;60508;42.622;25.416;2023-12-20T02:35:55;96953.25;;;4.66;74.83
45078;BME280;60508;42.622;25.416;2023-12-20T02:38:22;96952.00;;;4.55;75.07
45078;BME280;60508;42.622;25.416;2023-12-20T02:41:08;96961.03;;;4.67;75.10
45078;BME280;60508;42.622;25.416;2023-12-20T02:43:35;96957.53;;;4.60;75.13
45078;BME280;60508;42.622;25.416;2023-12-20T02:46:01;96956.91;;;4.58;75.68
45078;BME280;60508;42.622;25.416;2023-12-20T02:48:48;96953.00;;;4.47;75.98
45078;BME280;60508;42.622;25.416;2023-12-20T02:51:15;96952.19;;;4.47;76.23
45078;BME280;60508;42.622;25.416;2023-12-20T02:53:42;96944.19;;;4.40;75.55
45078;BME280;60508;42.622;25.416;2023-12-20T02:56:08;96935.41;;;4.39;76.09
45078;BME280;60508;42.622;25.416;2023-12-20T02:58:35;96937.84;;;4.41;76.15
45078;BME280;60508;42.622;25.416;2023-12-20T03:01:02;96935.81;;;4.43;75.94
45078;BME280;60508;42.622;25.416;2023-12-20T03:03:29;96933.34;;;4.42;74.90
45078;BME280;60508;42.622;25.416;2023-12-20T03:05:56;96929.44;;;4.37;74.72
45078;BME280;60508;42.622;25.416;2023-12-20T03:08:42;96921.84;;;4.28;74.72
45078;BME280;60508;42.622;25.416;2023-12-20T03:11:09;96925.25;;;4.15;75.97
45078;BME280;60508;42.622;25.416;2023-12-20T03:13:36;96928.47;;;3.97;77.35
45078;BME280;60508;42.622;25.416;2023-12-20T03:16:23;96931.78;;;4.06;77.36
45078;BME280;60508;42.622;25.416;2023-12-20T03:18:50;96922.00;;;4.13;77.27
45078;BME280;60508;42.622;25.416;2023-12-20T03:21:37;96918.81;;;3.89;77.75
45078;BME280;60508;42.622;25.416;2023-12-20T03:24:03;96914.94;;;3.85;77.76
45078;BME280;60508;42.622;25.416;2023-12-20T03:26:30;96914.53;;;3.88;77.62
45078;BME280;60508;42.622;25.416;2023-12-20T03:29:17;96912.00;;;3.73;79.21
45078;BME280;60508;42.622;25.416;2023-12-20T03:31:44;96912.84;;;3.80;77.85
45078;BME280;60508;42.622;25.416;2023-12-20T03:34:31;96905.84;;;3.73;77.75
45078;BME280;60508;42.622;25.416;2023-12-20T03:36:58;96909.25;;;3.60;78.83
45078;BME280;60508;42.622;25.416;2023-12-20T03:39:24;96898.50;;;3.33;80.03
45078;BME280;60508;42.622;25.416;2023-12-20T03:42:29;96894.06;;;3.12;80.59
45078;BME280;60508;42.622;25.416;2023-12-20T03:44:56;96895.88;;;2.83;82.56
45078;BME280;60508;42.622;25.416;2023-12-20T03:47:43;96898.81;;;2.95;82.59
45078;BME280;60508;42.622;25.416;2023-12-20T03:50:09;96896.91;;;3.10;82.53
45078;BME280;60508;42.622;25.416;2023-12-20T03:52:36;96899.69;;;3.31;81.37
45078;BME280;60508;42.622;25.416;2023-12-20T03:55:23;96880.97;;;3.10;82.33
45078;BME280;60508;42.622;25.416;2023-12-20T03:57:49;96890.59;;;3.46;81.48
45078;BME280;60508;42.622;25.416;2023-12-20T04:00:16;96878.84;;;3.62;80.94
45078;BME280;60508;42.622;25.416;2023-12-20T04:03:03;96886.06;;;3.75;79.89
45078;BME280;60508;42.622;25.416;2023-12-20T04:05:30;96874.84;;;3.87;78.89
45078;BME280;60508;42.622;25.416;2023-12-20T04:08:16;96864.22;;;3.87;78.17
45078;BME280;60508;42.622;25.416;2023-12-20T04:10:43;96868.94;;;3.84;78.59
45078;BME280;60508;42.622;25.416;2023-12-20T04:13:09;96865.88;;;3.88;77.87
45078;BME280;60508;42.622;25.416;2023-12-20T04:15:56;96877.19;;;4.10;77.56
45078;BME280;60508;42.622;25.416;2023-12-20T04:18:23;96872.22;;;3.93;76.36
45078;BME280;60508;42.622;25.416;2023-12-20T04:20:49;96886.31;;;3.94;75.72
45078;BME280;60508;42.622;25.416;2023-12-20T04:23:17;96877.03;;;3.70;76.88
45078;BME280;60508;42.622;25.416;2023-12-20T04:26:05;96867.63;;;3.67;77.34
45078;BME280;60508;42.622;25.416;2023-12-20T04:28:31;96869.50;;;3.73;77.28
45078;BME280;60508;42.622;25.416;2023-12-20T04:30:57;96863.16;;;3.74;76.48
45078;BME280;60508;42.622;25.416;2023-12-20T04:33:24;96870.25;;;3.60;77.32
45078;BME280;60508;42.622;25.416;2023-12-20T04:36:11;96865.78;;;3.33;77.97
45078;BME280;60508;42.622;25.416;2023-12-20T04:38:37;96870.91;;;3.34;78.26
45078;BME280;60508;42.622;25.416;2023-12-20T04:41:04;96867.00;;;3.30;78.10
45078;BME280;60508;42.622;25.416;2023-12-20T04:43:31;96868.25;;;3.34;78.10
45078;BME280;60508;42.622;25.416;2023-12-20T04:45:57;96872.28;;;3.23;78.39
45078;BME280;60508;42.622;25.416;2023-12-20T04:48:23;96880.09;;;3.32;78.91
45078;BME280;60508;42.622;25.416;2023-12-20T04:51:10;96888.69;;;3.34;78.31
45078;BME280;60508;42.622;25.416;2023-12-20T04:53:37;96886.03;;;3.34;77.86
45078;BME280;60508;42.622;25.416;2023-12-20T04:56:03;96891.53;;;3.32;77.51
45078;BME280;60508;42.622;25.416;2023-12-20T04:58:50;96889.41;;;3.21;77.88
45078;BME280;60508;42.622;25.416;2023-12-20T05:01:17;96880.63;;;3.20;78.21
45078;BME280;60508;42.622;25.416;2023-12-20T05:04:03;96881.34;;;2.79;79.36
45078;BME280;60508;42.622;25.416;2023-12-20T05:06:30;96878.81;;;2.92;79.33
45078;BME280;60508;42.622;25.416;2023-12-20T05:08:56;96868.38;;;2.91;79.43
45078;BME280;60508;42.622;25.416;2023-12-20T05:11:23;96871.31;;;3.03;79.31
45078;BME280;60508;42.622;25.416;2023-12-20T05:13:49;96859.19;;;3.22;78.58
45078;BME280;60508;42.622;25.416;2023-12-20T05:16:16;96850.50;;;3.06;78.95
45078;BME280;60508;42.622;25.416;2023-12-20T05:19:04;96844.69;;;3.24;78.61
45078;BME280;60508;42.622;25.416;2023-12-20T05:21:32;96859.28;;;3.35;77.52
45078;BME280;60508;42.622;25.416;2023-12-20T05:24:19;96850.56;;;3.48;77.54
45078;BME280;60508;42.622;25.416;2023-12-20T05:26:46;96853.53;;;3.32;77.23
45078;BME280;60508;42.622;25.416;2023-12-20T05:29:13;96852.72;;;3.31;78.03
45078;BME280;60508;42.622;25.416;2023-12-20T05:31:39;96852.28;;;3.27;77.66
45078;BME280;60508;42.622;25.416;2023-12-20T05:34:06;96852.63;;;3.18;77.55
45078;BME280;60508;42.622;25.416;2023-12-20T05:36:33;96843.38;;;3.07;77.55
45078;BME280;60508;42.622;25.416;2023-12-20T05:39:00;96837.03;;;3.08;77.96
45078;BME280;60508;42.622;25.416;2023-12-20T05:41:26;96847.47;;;3.09;78.77
45078;BME280;60508;42.622;25.416;2023-12-20T05:43:53;96841.06;;;3.32;79.15
45078;BME280;60508;42.622;25.416;2023-12-20T05:46:40;96831.78;;;3.50;78.59
45078;BME280;60508;42.622;25.416;2023-12-20T05:49:10;96823.41;;;3.53;78.66
45078;BME280;60508;42.622;25.416;2023-12-20T05:51:57;96826.69;;;3.61;78.34
45078;BME280;60508;42.622;25.416;2023-12-20T05:54:23;96830.44;;;3.74;77.82
45078;BME280;60508;42.622;25.416;2023-12-20T05:57:10;96817.75;;;3.69;77.55
45078;BME280;60508;42.622;25.416;2023-12-20T05:59:37;96819.03;;;3.80;77.00
45078;BME280;60508;42.622;25.416;2023-12-20T06:02:04;96826.31;;;3.64;77.39
45078;BME280;60508;42.622;25.416;2023-12-20T06:04:51;96816.97;;;3.75;77.89
45078;BME280;60508;42.622;25.416;2023-12-20T06:07:17;96830.47;;;3.87;77.11
45078;BME280;60508;42.622;25.416;2023-12-20T06:09:44;96823.81;;;3.50;77.38
45078;BME280;60508;42.622;25.416;2023-12-20T06:12:11;96816.22;;;3.46;75.68
45078;BME280;60508;42.622;25.416;2023-12-20T06:14:37;96809.59;;;3.29;77.05
45078;BME280;60508;42.622;25.416;2023-12-20T06:17:04;96826.44;;;3.43;76.50
45078;BME280;60508;42.622;25.416;2023-12-20T06:19:50;96824.84;;;3.55;75.84
45078;BME280;60508;42.622;25.416;2023-12-20T06:22:17;96819.63;;;3.82;75.07
45078;BME280;60508;42.622;25.416;2023-12-20T06:24:44;96821.53;;;3.95;74.96
45078;BME280;60508;42.622;25.416;2023-12-20T06:27:31;96802.09;;;4.01;75.66
45078;BME280;60508;42.622;25.416;2023-12-20T06:30:02;96806.66;;;4.20;75.67
45078;BME280;60508;42.622;25.416;2023-12-20T06:32:29;96814.47;;;4.55;74.74
45078;BME280;60508;42.622;25.416;2023-12-20T06:35:17;96809.94;;;4.76;73.10
45078;BME280;60508;42.622;25.416;2023-12-20T06:37:43;96816.09;;;4.90;72.24
45078;BME280;60508;42.622;25.416;2023-12-20T06:40:30;96821.59;;;5.02;71.34
45078;BME280;60508;42.622;25.416;2023-12-20T06:42:57;96815.66;;;5.00;71.21
45078;BME280;60508;42.622;25.416;2023-12-20T06:45:23;96801.13;;;5.09;70.44
45078;BME280;60508;42.622;25.416;2023-12-20T06:47:50;96800.47;;;5.20;69.89
45078;BME280;60508;42.622;25.416;2023-12-20T06:50:16;96793.22;;;5.41;69.78
45078;BME280;60508;42.622;25.416;2023-12-20T06:53:03;96787.41;;;5.64;68.98
45078;BME280;60508;42.622;25.416;2023-12-20T06:55:36;96802.69;;;5.89;68.78
45078;BME280;60508;42.622;25.416;2023-12-20T06:58:04;96792.03;;;6.27;67.43
45078;BME280;60508;42.622;25.416;2023-12-20T07:00:32;96788.09;;;6.30;66.44
45078;BME280;60508;42.622;25.416;2023-12-20T07:02:59;96793.81;;;5.95;68.62
45078;BME280;60508;42.622;25.416;2023-12-20T07:05:25;96792.50;;;6.17;68.22
45078;BME280;60508;42.622;25.416;2023-12-20T07:07:53;96799.13;;;6.40;66.98
45078;BME280;60508;42.622;25.416;2023-12-20T07:10:40;96787.31;;;6.54;66.11
45078;BME280;60508;42.622;25.416;2023-12-20T07:13:07;96777.22;;;6.82;64.90
45078;BME280;60508;42.622;25.416;2023-12-20T07:15:34;96786.34;;;6.92;65.02
45078;BME280;60508;42.622;25.416;2023-12-20T07:18:02;96784.25;;;7.01;64.45
45078;BME280;60508;42.622;25.416;2023-12-20T07:20:48;96784.09;;;7.15;64.21
45078;BME280;60508;42.622;25.416;2023-12-20T07:23:15;96773.19;;;7.35;62.68
45078;BME280;60508;42.622;25.416;2023-12-20T07:25:42;96775.88;;;7.53;62.71
45078;BME280;60508;42.622;25.416;2023-12-20T07:28:09;96772.97;;;7.55;63.03
45078;BME280;60508;42.622;25.416;2023-12-20T07:30:36;96779.72;;;7.57;61.80
45078;BME280;60508;42.622;25.416;2023-12-20T07:33:02;96777.44;;;7.24;63.84
45078;BME280;60508;42.622;25.416;2023-12-20T07:35:53;96770.38;;;7.48;62.92
45078;BME280;60508;42.622;25.416;2023-12-20T07:38:19;96780.66;;;7.81;61.96
45078;BME280;60508;42.622;25.416;2023-12-20T07:41:06;96765.97;;;7.72;60.54
45078;BME280;60508;42.622;25.416;2023-12-20T07:43:32;96772.31;;;7.59;60.20
45078;BME280;60508;42.622;25.416;2023-12-20T07:46:06;96767.00;;;7.71;60.82
45078;BME280;60508;42.622;25.416;2023-12-20T07:48:53;96764.69;;;7.75;60.10
45078;BME280;60508;42.622;25.416;2023-12-20T07:51:21;96771.03;;;8.11;60.13
45078;BME280;60508;42.622;25.416;2023-12-20T07:54:08;96769.56;;;8.38;59.20
45078;BME280;60508;42.622;25.416;2023-12-20T07:56:35;96768.03;;;8.61;58.49
45078;BME280;60508;42.622;25.416;2023-12-20T07:59:01;96771.19;;;8.39;58.71
45078;BME280;60508;42.622;25.416;2023-12-20T08:01:28;96780.56;;;8.49;58.54
45078;BME280;60508;42.622;25.416;2023-12-20T08:04:15;96773.56;;;8.48;58.86
45078;BME280;60508;42.622;25.416;2023-12-20T08:06:42;96776.84;;;8.62;58.34
45078;BME280;60508;42.622;25.416;2023-12-20T08:09:08;96771.72;;;8.72;57.94
45078;BME280;60508;42.622;25.416;2023-12-20T08:11:35;96770.34;;;8.93;57.30
45078;BME280;60508;42.622;25.416;2023-12-20T08:14:02;96761.16;;;9.01;57.56
45078;BME280;60508;42.622;25.416;2023-12-20T08:16:28;96759.28;;;9.37;57.20
45078;BME280;60508;42.622;25.416;2023-12-20T08:18:54;96766.19;;;9.61;55.68
45078;BME280;60508;42.622;25.416;2023-12-20T08:21:21;96750.56;;;9.58;55.84
45078;BME280;60508;42.622;25.416;2023-12-20T08:24:09;96746.72;;;9.54;55.74
45078;BME280;60508;42.622;25.416;2023-12-20T08:26:36;96747.47;;;9.78;55.29
45078;BME280;60508;42.622;25.416;2023-12-20T08:29:03;96730.41;;;9.84;54.78
45078;BME280;60508;42.622;25.416;2023-12-20T08:31:29;96730.75;;;9.88;54.68
45078;BME280;60508;42.622;25.416;2023-12-20T08:33:56;96728.06;;;9.88;53.86
45078;BME280;60508;42.622;25.416;2023-12-20T08:36:43;96725.97;;;9.90;54.00
45078;BME280;60508;42.622;25.416;2023-12-20T08:39:10;96719.84;;;9.78;54.61
45078;BME280;60508;42.622;25.416;2023-12-20T08:41:36;96707.03;;;9.68;55.41
45078;BME280;60508;42.622;25.416;2023-12-20T08:44:03;96705.22;;;9.85;55.16
45078;BME280;60508;42.622;25.416;2023-12-20T08:46:50;96692.19;;;10.23;53.38
45078;BME280;60508;42.622;25.416;2023-12-20T08:49:17;96688.78;;;10.45;52.92
45078;BME280;60508;42.622;25.416;2023-12-20T08:52:04;96685.84;;;10.46;52.27
45078;BME280;60508;42.622;25.416;2023-12-20T08:54:45;96686.09;;;10.45;52.74
45078;BME280;60508;42.622;25.416;2023-12-20T08:57:32;96691.19;;;10.80;52.42
45078;BME280;60508;42.622;25.416;2023-12-20T09:00:00;96681.88;;;11.05;52.14
45078;BME280;60508;42.622;25.416;2023-12-20T09:02:27;96675.09;;;11.02;51.74
45078;BME280;60508;42.622;25.416;2023-12-20T09:04:54;96681.28;;;11.03;51.92
45078;BME280;60508;42.622;25.416;2023-12-20T09:07:26;96667.34;;;11.06;51.79
45078;BME280;60508;42.622;25.416;2023-12-20T09:09:53;96667.03;;;11.02;51.33
45078;BME280;60508;42.622;25.416;2023-12-20T09:12:20;96652.59;;;11.08;50.65
45078;BME280;60508;42.622;25.416;2023-12-20T09:14:47;96646.03;;;11.21;50.90
45078;BME280;60508;42.622;25.416;2023-12-20T09:17:15;96639.59;;;11.22;50.71
45078;BME280;60508;42.622;25.416;2023-12-20T09:20:02;96631.00;;;11.47;50.52
45078;BME280;60508;42.622;25.416;2023-12-20T09:22:32;96626.16;;;11.99;48.63
45078;BME280;60508;42.622;25.416;2023-12-20T09:24:58;96623.91;;;12.18;47.20
45078;BME280;60508;42.622;25.416;2023-12-20T09:27:25;96624.00;;;12.01;48.31
45078;BME280;60508;42.622;25.416;2023-12-20T09:30:12;96613.72;;;11.93;48.64
45078;BME280;60508;42.622;25.416;2023-12-20T09:32:39;96610.19;;;12.24;47.40
45078;BME280;60508;42.622;25.416;2023-12-20T09:35:06;96613.38;;;12.16;48.20
45078;BME280;60508;42.622;25.416;2023-12-20T09:37:35;96601.97;;;12.89;45.67
45078;BME280;60508;42.622;25.416;2023-12-20T09:40:03;96596.72;;;12.67;45.48
45078;BME280;60508;42.622;25.416;2023-12-20T09:42:54;96598.34;;;12.63;46.88
45078;BME280;60508;42.622;25.416;2023-12-20T09:45:23;96596.72;;;12.67;46.54
45078;BME280;60508;42.622;25.416;2023-12-20T09:47:52;96586.59;;;12.95;45.80
45078;BME280;60508;42.622;25.416;2023-12-20T09:50:22;96583.72;;;13.12;45.33
45078;BME280;60508;42.622;25.416;2023-12-20T09:53:12;96571.81;;;13.08;45.27
45078;BME280;60508;42.622;25.416;2023-12-20T09:55:41;96569.03;;;13.50;44.21
45078;BME280;60508;42.622;25.416;2023-12-20T09:58:28;96551.28;;;12.91;45.55
45078;BME280;60508;42.622;25.416;2023-12-20T10:00:55;96552.38;;;12.95;45.53
45078;BME280;60508;42.622;25.416;2023-12-20T10:03:25;96553.56;;;12.57;46.31
45078;BME280;60508;42.622;25.416;2023-12-20T10:06:13;96541.78;;;12.26;46.73
45078;BME280;60508;42.622;25.416;2023-12-20T10:08:40;96539.31;;;11.54;48.49
45078;BME280;60508;42.622;25.416;2023-12-20T10:11:07;96536.63;;;11.54;49.14
45078;BME280;60508;42.622;25.416;2023-12-20T10:13:59;96533.06;;;12.08;48.44
45078;BME280;60508;42.622;25.416;2023-12-20T10:16:29;96520.84;;;11.95;48.13
45078;BME280;60508;42.622;25.416;2023-12-20T10:19:17;96529.53;;;12.45;47.42
45078;BME280;60508;42.622;25.416;2023-12-20T10:21:44;96518.81;;;12.13;47.40
45078;BME280;60508;42.622;25.416;2023-12-20T10:24:32;96527.47;;;12.20;47.70
45078;BME280;60508;42.622;25.416;2023-12-20T10:27:05;96522.22;;;12.03;47.46
45078;BME280;60508;42.622;25.416;2023-12-20T10:29:33;96509.09;;;12.07;47.40
45078;BME280;60508;42.622;25.416;2023-12-20T10:32:27;96505.28;;;12.50;46.47
45078;BME280;60508;42.622;25.416;2023-12-20T10:35:14;96500.28;;;12.21;47.06
45078;BME280;60508;42.622;25.416;2023-12-20T10:37:41;96490.81;;;12.67;46.93
45078;BME280;60508;42.622;25.416;2023-12-20T10:40:07;96481.69;;;12.88;45.88
45078;BME280;60508;42.622;25.416;2023-12-20T10:42:55;96476.31;;;12.93;45.91
45078;BME280;60508;42.622;25.416;2023-12-20T10:45:23;96482.94;;;12.55;46.93
45078;BME280;60508;42.622;25.416;2023-12-20T10:48:10;96480.81;;;12.09;48.82
45078;BME280;60508;42.622;25.416;2023-12-20T10:50:41;96484.34;;;11.77;50.55
45078;BME280;60508;42.622;25.416;2023-12-20T10:53:07;96486.47;;;11.75;50.44
45078;BME280;60508;42.622;25.416;2023-12-20T10:55:34;96478.13;;;12.09;50.47
45078;BME280;60508;42.622;25.416;2023-12-20T10:58:22;96474.09;;;12.65;48.79
45078;BME280;60508;42.622;25.416;2023-12-20T11:00:50;96470.88;;;12.73;48.32
45078;BME280;60508;42.622;25.416;2023-12-20T11:03:21;96473.34;;;12.85;48.07
45078;BME280;60508;42.622;25.416;2023-12-20T11:06:05;96467.13;;;12.79;48.03
45078;BME280;60508;42.622;25.416;2023-12-20T11:09:03;96456.66;;;14.11;44.97
45078;BME280;60508;42.622;25.416;2023-12-20T11:14:48;96462.59;;;16.02;41.67
45078;BME280;60508;42.622;25.416;2023-12-20T11:17:17;96458.16;;;16.60;39.65
45078;BME280;60508;42.622;25.416;2023-12-20T11:20:05;96451.16;;;16.59;39.17
45078;BME280;60508;42.622;25.416;2023-12-20T11:22:33;96444.97;;;16.29;39.75
45078;BME280;60508;42.622;25.416;2023-12-20T11:25:21;96438.00;;;16.23;39.33
45078;BME280;60508;42.622;25.416;2023-12-20T11:28:08;96441.81;;;16.46;39.68
45078;BME280;60508;42.622;25.416;2023-12-20T11:30:58;96436.22;;;16.80;39.02
45078;BME280;60508;42.622;25.416;2023-12-20T11:33:30;96434.78;;;17.07;37.91
45078;BME280;60508;42.622;25.416;2023-12-20T11:36:18;96428.06;;;16.80;38.74
45078;BME280;60508;42.622;25.416;2023-12-20T11:38:56;96417.59;;;16.74;38.35
45078;BME280;60508;42.622;25.416;2023-12-20T11:41:44;96414.94;;;16.69;38.78
45078;BME280;60508;42.622;25.416;2023-12-20T11:44:12;96401.19;;;16.41;39.20
45078;BME280;60508;42.622;25.416;2023-12-20T11:46:44;96409.06;;;16.80;39.03
45078;BME280;60508;42.622;25.416;2023-12-20T11:49:23;96402.06;;;16.98;38.43
45078;BME280;60508;42.622;25.416;2023-12-20T11:51:51;96376.78;;;16.60;39.02
45078;BME280;60508;42.622;25.416;2023-12-20T11:54:18;96376.00;;;16.16;39.87
45078;BME280;60508;42.622;25.416;2023-12-20T11:56:45;96375.31;;;16.05;39.58
45078;BME280;60508;42.622;25.416;2023-12-20T11:59:12;96373.13;;;15.83;40.37
45078;BME280;60508;42.622;25.416;2023-12-20T12:01:38;96370.00;;;15.95;40.25
45078;BME280;60508;42.622;25.416;2023-12-20T12:04:06;96368.63;;;15.98;40.22
45078;BME280;60508;42.622;25.416;2023-12-20T12:06:53;96360.34;;;15.89;40.40
45078;BME280;60508;42.622;25.416;2023-12-20T12:09:21;96346.16;;;15.39;41.60
45078;BME280;60508;42.622;25.416;2023-12-20T12:12:08;96346.22;;;15.33;42.36
45078;BME280;60508;42.622;25.416;2023-12-20T12:14:37;96350.72;;;15.14;42.74
45078;BME280;60508;42.622;25.416;2023-12-20T12:17:24;96338.66;;;14.62;43.84
45078;BME280;60508;42.622;25.416;2023-12-20T12:20:02;96332.88;;;14.23;45.01
45078;BME280;60508;42.622;25.416;2023-12-20T12:25:26;96320.94;;;14.35;45.93
45078;BME280;60508;42.622;25.416;2023-12-20T12:28:13;96322.91;;;14.19;45.92
45078;BME280;60508;42.622;25.416;2023-12-20T12:30:40;96318.19;;;13.85;46.07
45078;BME280;60508;42.622;25.416;2023-12-20T12:33:07;96326.06;;;13.71;47.15
45078;BME280;60508;42.622;25.416;2023-12-20T12:35:35;96330.88;;;13.74;46.85
45078;BME280;60508;42.622;25.416;2023-12-20T12:38:01;96314.50;;;13.55;46.35
45078;BME280;60508;42.622;25.416;2023-12-20T12:40:50;96312.63;;;13.45;46.82
45078;BME280;60508;42.622;25.416;2023-12-20T12:43:17;96303.19;;;13.43;46.47
45078;BME280;60508;42.622;25.416;2023-12-20T12:46:04;96305.63;;;13.34;46.53
45078;BME280;60508;42.622;25.416;2023-12-20T12:48:31;96304.84;;;13.13;47.38
45078;BME280;60508;42.622;25.416;2023-12-20T12:50:57;96295.38;;;12.95;47.70
45078;BME280;60508;42.622;25.416;2023-12-20T12:53:26;96296.72;;;12.77;48.51
45078;BME280;60508;42.622;25.416;2023-12-20T12:56:13;96288.41;;;12.89;48.90
45078;BME280;60508;42.622;25.416;2023-12-20T12:58:41;96287.03;;;13.12;48.18
45078;BME280;60508;42.622;25.416;2023-12-20T13:01:08;96283.78;;;13.15;47.55
45078;BME280;60508;42.622;25.416;2023-12-20T13:03:55;96296.44;;;13.25;47.32
45078;BME280;60508;42.622;25.416;2023-12-20T13:06:22;96291.34;;;12.92;49.07
45078;BME280;60508;42.622;25.416;2023-12-20T13:08:49;96289.44;;;12.98;49.37
45078;BME280;60508;42.622;25.416;2023-12-20T13:11:36;96285.16;;;12.97;49.24
45078;BME280;60508;42.622;25.416;2023-12-20T13:14:02;96287.81;;;12.87;48.96
45078;BME280;60508;42.622;25.416;2023-12-20T13:16:30;96268.97;;;12.97;48.51
45078;BME280;60508;42.622;25.416;2023-12-20T13:19:17;96267.59;;;12.94;49.12
45078;BME280;60508;42.622;25.416;2023-12-20T13:21:44;96274.09;;;12.83;49.31
45078;BME280;60508;42.622;25.416;2023-12-20T13:24:10;96271.13;;;12.85;49.32
45078;BME280;60508;42.622;25.416;2023-12-20T13:26:57;96281.91;;;12.69;49.94
45078;BME280;60508;42.622;25.416;2023-12-20T13:29:24;96272.47;;;12.72;49.15
45078;BME280;60508;42.622;25.416;2023-12-20T13:31:54;96273.00;;;12.64;49.89
45078;BME280;60508;42.622;25.416;2023-12-20T13:34:20;96262.50;;;12.77;48.87